KXNOKLKR

Guest
Details From KXNO - NORTH AF AUX
To KLKR - LANCASTER CO MC WHIRTER FLD
Flight Number -
Tags decoded
Created
Modified
Stats Distance 71 nm / 131 km
Max Altitude 0 ft / 0 m
Waypoints 5
Social Downloads 1
Likes 0
Share VATSIM

Download

Looking for another format? Having issues loading an existing format? Contact us
Advertisement - Login to hide

Notes

Requested: KXNO CAE KCAE KFDW KLKR

Route

KXNO CAE KCAE KFDW KLKR

ID Type Via Altitude Latitude Longitude Leg Dist Tot Dist Heading (true) Name
O KXNO APT - 0 ft / 0 m 33.60993˚ -81.07862˚ - 0 nm - NORTH AF AUX
CAE VOR - 0 ft / 0 m 33.85725˚ -81.05392˚ 14 nm 14 nm 5° / 5° COLUMBIA VORTAC
KCAE APT - 0 ft / 0 m 33.93875˚ -81.11937˚ 5 nm 20 nm 326° / 326° COLUMBIA METROPOLITAN
KFDW APT - 0 ft / 0 m 34.31546˚ -81.10880˚ 22 nm 43 nm 1° / 1° Fairfield Co
O KLKR APT - 0 ft / 0 m 34.72290˚ -80.85459˚ 27 nm 70 nm 27° / 27° LANCASTER CO MC WHIRTER FLD

Altitude Profile

Advertisement - Login to hide

KXNO

Details ICAO KXNO
Name NORTH AF AUX
Region United States
Timezone America/New_York (UTC-5.0)
Stats Elevation 321 ft / 98 m (AMSL)
Location 33.609930° -81.078621°
Runways 2
Magnetic Variation 7.338° W

METAR

KXNO 112256Z AUTO 17004KT 10SM CLR 10/M01 A3004 RMK AO2 SLP177 T00991012 $

Decode

TAF

Not found

Departure Runways

ID Width Length Bearing (true) Bearing (mag) Surface Threshold Offset Overrun Length
05 90 ft / 27 m 3,501 ft / 1,067 m 43.72° 51.06° Asphalt 0 ft / 0 m 0 ft / 0 m
06 150 ft / 46 m 9,996 ft / 3,047 m 53.49° 60.83° Asphalt 1,000 ft / 305 m 1,000 ft / 305 m
23 90 ft / 27 m 3,501 ft / 1,067 m 223.73° 231.07° Asphalt 0 ft / 0 m 300 ft / 91 m
24 150 ft / 46 m 9,996 ft / 3,047 m 233.50° 240.84° Asphalt 1,000 ft / 305 m 1,000 ft / 305 m

KLKR

Details ICAO KLKR
Name LANCASTER CO MC WHIRTER FLD
Region United States
Timezone America/New_York (UTC-5.0)
Stats Elevation 486 ft / 148 m (AMSL)
Location 34.722904° -80.854590°
Runways 1
Magnetic Variation 7.665° W

METAR

KLKR 112335Z AUTO 18003KT 10SM CLR 08/00 A3000 RMK AO2

Decode

TAF

Not found

Destination Runways

ID Width Length Bearing (true) Bearing (mag) Surface Threshold Offset Overrun Length
06 100 ft / 30 m 5,999 ft / 1,829 m 58.40° 66.07° Asphalt 0 ft / 0 m 0 ft / 0 m
24 100 ft / 30 m 5,999 ft / 1,829 m 238.41° 246.08° Asphalt 660 ft / 201 m 0 ft / 0 m